Time;durP1;ratioP1;P1;durP2;ratioP2;P2;SDS_P1;SDS_P2;PMS_P1;PMS_P2;Temp;Humidity;BMP_temperature;BMP_pressure;BME280_temperature;BME280_humidity;BME280_pressure;Samples;Min_cycle;Max_cycle;Signal;HPM_P1;HPM_P2
2021/09/11 00:01:46;;;;;;;0.90;0.40;;;18.10;99.90;;;;;;4883215;29;20455;-71
2021/09/11 00:04:14;;;;;;;0.90;0.50;;;18.10;99.90;;;;;;4885070;29;20431;-72
2021/09/11 00:06:43;;;;;;;0.90;0.40;;;18.10;99.90;;;;;;4885729;29;20439;-72
2021/09/11 00:09:11;;;;;;;0.90;0.40;;;18.00;99.90;;;;;;4867229;29;20413;-73
2021/09/11 00:11:41;;;;;;;0.90;0.40;;;18.10;99.90;;;;;;4865800;29;20487;-71
2021/09/11 00:14:09;;;;;;;0.90;0.40;;;18.00;99.90;;;;;;4865902;29;20431;-71
2021/09/11 00:16:37;;;;;;;0.90;0.40;;;18.00;99.90;;;;;;4880418;29;20436;-71
2021/09/11 00:19:05;;;;;;;0.83;0.40;;;18.00;99.90;;;;;;4861063;29;20496;-71
2021/09/11 00:21:34;;;;;;;0.90;0.40;;;18.00;99.90;;;;;;4875925;29;20430;-71
2021/09/11 00:24:02;;;;;;;0.90;0.40;;;18.00;99.90;;;;;;4877528;29;20519;-71
2021/09/11 00:26:30;;;;;;;0.90;0.40;;;17.90;99.90;;;;;;4860470;29;20520;-71
2021/09/11 00:29:00;;;;;;;0.80;0.40;;;18.00;99.90;;;;;;4860674;29;20650;-71
2021/09/11 00:31:28;;;;;;;0.90;0.40;;;18.00;99.90;;;;;;4877260;29;20406;-72
2021/09/11 00:33:57;;;;;;;0.90;0.40;;;18.00;99.90;;;;;;4860901;29;20963;-71
2021/09/11 00:36:25;;;;;;;0.90;0.50;;;18.00;99.90;;;;;;4877201;29;20434;-73
2021/09/11 00:38:53;;;;;;;0.90;0.40;;;18.00;99.90;;;;;;4876216;29;20552;-72
2021/09/11 00:41:22;;;;;;;0.90;0.40;;;18.00;99.90;;;;;;4860728;29;20421;-72
2021/09/11 00:43:51;;;;;;;0.90;0.40;;;18.00;99.90;;;;;;4860445;29;20452;-71
2021/09/11 00:46:21;;;;;;;0.87;0.40;;;18.00;99.90;;;;;;4876653;29;20402;-71
2021/09/11 00:48:49;;;;;;;0.90;0.40;;;18.10;99.90;;;;;;4860032;29;20414;-72
2021/09/11 00:51:18;;;;;;;0.90;0.40;;;18.10;99.90;;;;;;4876844;29;20410;-72
2021/09/11 00:53:46;;;;;;;0.90;0.40;;;18.10;99.90;;;;;;4877038;29;20402;-71
2021/09/11 00:56:14;;;;;;;0.90;0.40;;;18.10;99.90;;;;;;4876966;29;20409;-71
2021/09/11 00:58:44;;;;;;;0.90;0.40;;;18.10;99.90;;;;;;4876726;29;20513;-71
2021/09/11 01:01:12;;;;;;;0.90;0.50;;;18.10;99.90;;;;;;4876532;29;20409;-71
2021/09/11 01:03:42;;;;;;;0.90;0.40;;;18.10;99.90;;;;;;4876333;29;20513;-71
2021/09/11 01:06:11;;;;;;;0.90;0.40;;;18.10;99.90;;;;;;4876982;29;20498;-71
2021/09/11 01:08:41;;;;;;;0.80;0.40;;;18.00;99.90;;;;;;4876783;29;20402;-71
2021/09/11 01:11:09;;;;;;;0.90;0.40;;;18.00;99.90;;;;;;4876828;29;20444;-72
2021/09/11 01:13:38;;;;;;;0.90;0.40;;;17.90;99.90;;;;;;4859951;29;20463;-72
2021/09/11 01:16:08;;;;;;;0.80;0.40;;;17.80;99.90;;;;;;4876513;29;20458;-72
2021/09/11 01:18:36;;;;;;;0.90;0.50;;;17.80;99.90;;;;;;4860025;29;20479;-73
2021/09/11 01:21:07;;;;;;;0.90;0.50;;;17.80;99.90;;;;;;4875407;29;20962;-73
2021/09/11 01:23:39;;;;;;;0.80;0.40;;;17.80;99.90;;;;;;4859990;29;20454;-72
2021/09/11 01:26:07;;;;;;;0.90;0.40;;;17.80;99.90;;;;;;4860068;29;20475;-72
2021/09/11 01:28:36;;;;;;;0.90;0.40;;;17.80;99.90;;;;;;4859928;29;20474;-72
2021/09/11 01:31:04;;;;;;;0.80;0.40;;;17.80;99.90;;;;;;4876476;29;20485;-73
2021/09/11 01:33:33;;;;;;;0.90;0.50;;;17.80;99.90;;;;;;4859553;29;20442;-71
2021/09/11 01:36:01;;;;;;;0.80;0.40;;;17.80;99.90;;;;;;4876337;29;20459;-71
2021/09/11 01:38:29;;;;;;;0.80;0.40;;;17.80;99.90;;;;;;4876533;29;20858;-71
2021/09/11 01:40:59;;;;;;;0.80;0.40;;;17.70;99.90;;;;;;4876354;29;20784;-70
2021/09/11 01:43:28;;;;;;;0.90;0.40;;;17.70;99.90;;;;;;4875285;29;20458;-71
2021/09/11 01:45:57;;;;;;;0.80;0.50;;;17.70;99.90;;;;;;4876100;29;20412;-72
2021/09/11 01:48:27;;;;;;;0.90;0.40;;;17.60;99.90;;;;;;4876242;29;20522;-70
2021/09/11 01:50:55;;;;;;;0.80;0.40;;;17.60;99.90;;;;;;4876054;29;20409;-70
2021/09/11 01:53:23;;;;;;;0.80;0.40;;;17.70;99.90;;;;;;4876076;29;20452;-71
2021/09/11 01:55:52;;;;;;;1.73;0.70;;;17.70;99.90;;;;;;4859381;29;21055;-71
2021/09/11 01:58:21;;;;;;;0.90;0.40;;;17.70;99.90;;;;;;4876428;29;20475;-72
2021/09/11 02:00:50;;;;;;;0.90;0.40;;;17.60;99.90;;;;;;4859333;29;20410;-72
2021/09/11 02:03:19;;;;;;;0.80;0.40;;;17.60;99.90;;;;;;4876161;29;20432;-72
2021/09/11 02:05:47;;;;;;;0.80;0.50;;;17.60;99.90;;;;;;4875750;29;20846;-70
2021/09/11 02:08:16;;;;;;;0.80;0.40;;;17.60;99.90;;;;;;4859525;29;20405;-71
2021/09/11 02:10:44;;;;;;;0.80;0.40;;;17.60;99.90;;;;;;4859128;29;20795;-71
2021/09/11 02:13:13;;;;;;;0.80;0.40;;;17.50;99.90;;;;;;4859145;29;20864;-72
2021/09/11 02:15:42;;;;;;;0.80;0.40;;;17.50;99.90;;;;;;4878616;29;20414;-72
2021/09/11 02:18:11;;;;;;;0.80;0.40;;;17.60;99.90;;;;;;4862882;29;21022;-72
2021/09/11 02:20:39;;;;;;;0.80;0.50;;;17.60;99.90;;;;;;4862536;29;20630;-72
2021/09/11 02:23:07;;;;;;;0.80;0.40;;;17.60;99.90;;;;;;4879504;29;20429;-72
2021/09/11 02:25:36;;;;;;;0.80;0.40;;;17.60;99.90;;;;;;4879825;29;20427;-72
2021/09/11 02:28:05;;;;;;;0.80;0.40;;;17.50;99.90;;;;;;4862258;29;21054;-72
2021/09/11 02:30:33;;;;;;;0.80;0.40;;;17.60;99.90;;;;;;4861974;29;20429;-72
2021/09/11 02:33:04;;;;;;;0.80;0.40;;;17.50;99.90;;;;;;4878924;29;20426;-72
2021/09/11 02:35:32;;;;;;;0.80;0.40;;;17.50;99.90;;;;;;4878073;29;20937;-72
2021/09/11 02:38:00;;;;;;;0.80;0.40;;;17.50;99.90;;;;;;4862175;29;20789;-71
2021/09/11 02:40:29;;;;;;;0.80;0.40;;;17.50;99.90;;;;;;4879362;29;20412;-71
2021/09/11 02:42:57;;;;;;;0.80;0.40;;;17.40;99.90;;;;;;4877593;29;20546;-72
2021/09/11 02:45:25;;;;;;;0.90;0.77;;;17.40;99.90;;;;;;4862260;29;20464;-72
2021/09/11 02:47:53;;;;;;;0.80;0.40;;;17.40;99.90;;;;;;4879217;29;20663;-72
2021/09/11 02:50:24;;;;;;;1.23;1.13;;;17.40;99.90;;;;;;4862140;29;20447;-72
2021/09/11 02:52:52;;;;;;;0.80;0.40;;;17.40;99.90;;;;;;4878777;29;20805;-72
2021/09/11 02:55:20;;;;;;;0.80;0.40;;;17.40;99.90;;;;;;4862130;29;20441;-71
2021/09/11 02:57:48;;;;;;;0.80;0.40;;;17.50;99.90;;;;;;4878556;29;20422;-72
2021/09/11 03:00:17;;;;;;;0.80;0.40;;;17.50;99.90;;;;;;4878818;29;20781;-73
2021/09/11 03:02:46;;;;;;;0.90;0.50;;;17.40;99.90;;;;;;4861907;29;20493;-71
2021/09/11 03:05:15;;;;;;;0.80;0.40;;;17.30;99.90;;;;;;4879013;29;20458;-71
2021/09/11 03:07:44;;;;;;;0.80;0.40;;;17.30;99.90;;;;;;4878846;29;20402;-72
2021/09/11 03:10:13;;;;;;;0.80;0.40;;;17.30;99.90;;;;;;4878010;23;20506;-78
2021/09/11 03:12:41;;;;;;;0.80;0.40;;;17.20;99.90;;;;;;4917918;29;20513;-76
2021/09/11 03:15:10;;;;;;;0.80;0.40;;;17.30;99.90;;;;;;4918308;29;20408;-77
2021/09/11 03:17:38;;;;;;;0.80;0.40;;;17.40;99.90;;;;;;4918508;29;20414;-76
2021/09/11 03:20:07;;;;;;;0.80;0.40;;;17.30;99.90;;;;;;4919344;29;20443;-78
2021/09/11 03:22:36;;;;;;;0.80;0.40;;;17.40;99.90;;;;;;4900927;29;20464;-77
2021/09/11 03:25:06;;;;;;;0.80;0.40;;;17.40;99.90;;;;;;4917534;29;20395;-77
2021/09/11 03:27:34;;;;;;;0.83;0.40;;;17.40;99.90;;;;;;4916957;29;20815;-77
2021/09/11 03:30:02;;;;;;;0.80;0.40;;;17.40;99.90;;;;;;4917869;29;20442;-77
2021/09/11 03:32:30;;;;;;;0.80;0.40;;;17.40;99.90;;;;;;4917802;29;20922;-77
2021/09/11 03:34:58;;;;;;;0.80;0.40;;;17.40;99.90;;;;;;4917922;29;20409;-77
2021/09/11 03:37:26;;;;;;;0.80;0.40;;;17.30;99.90;;;;;;4917799;29;20425;-77
2021/09/11 03:39:54;;;;;;;0.80;0.40;;;17.40;99.90;;;;;;4917453;29;20432;-76
2021/09/11 03:42:24;;;;;;;0.87;0.40;;;17.40;99.90;;;;;;4917808;29;20444;-76
2021/09/11 03:44:52;;;;;;;0.80;0.40;;;17.30;99.90;;;;;;4917899;29;20452;-77
2021/09/11 03:47:20;;;;;;;0.80;0.40;;;17.40;99.90;;;;;;4917145;29;20461;-77
2021/09/11 03:49:48;;;;;;;0.80;0.40;;;17.40;99.90;;;;;;4900121;29;20939;-79
2021/09/11 03:52:16;;;;;;;0.80;0.50;;;17.50;99.90;;;;;;4917299;29;20523;-77
2021/09/11 03:54:44;;;;;;;0.80;0.40;;;17.50;99.90;;;;;;4917069;29;20405;-77
2021/09/11 03:57:12;;;;;;;0.80;0.40;;;17.40;99.90;;;;;;4916876;29;20426;-77
2021/09/11 03:59:42;;;;;;;0.80;0.40;;;17.50;99.90;;;;;;4899586;29;20536;-77
2021/09/11 04:02:10;;;;;;;0.80;0.40;;;17.30;99.90;;;;;;4916870;29;20416;-77
2021/09/11 04:04:38;;;;;;;0.80;0.40;;;17.30;99.90;;;;;;4916787;29;20389;-77
2021/09/11 04:07:06;;;;;;;0.80;0.40;;;17.30;99.90;;;;;;4916787;29;20909;-77
2021/09/11 04:09:34;;;;;;;0.80;0.40;;;17.40;99.90;;;;;;4899905;29;20416;-77
2021/09/11 04:12:02;;;;;;;0.80;0.40;;;17.40;99.90;;;;;;4917282;29;20874;-77
2021/09/11 04:14:30;;;;;;;0.80;0.40;;;17.40;99.90;;;;;;4920221;29;20489;-77
2021/09/11 04:17:00;;;;;;;0.80;0.40;;;17.40;99.90;;;;;;4922655;29;20397;-77
2021/09/11 04:19:28;;;;;;;0.80;0.40;;;17.40;99.90;;;;;;4923046;29;20465;-77
2021/09/11 04:21:56;;;;;;;0.80;0.40;;;17.50;99.90;;;;;;4901120;29;20431;-77
2021/09/11 04:24:24;;;;;;;0.80;0.40;;;17.60;99.90;;;;;;4916506;29;20400;-77
2021/09/11 04:26:53;;;;;;;0.80;0.40;;;17.60;99.90;;;;;;4916235;29;20484;-77
2021/09/11 04:29:21;;;;;;;0.80;0.50;;;17.70;99.90;;;;;;4916317;29;20521;-77
2021/09/11 04:31:49;;;;;;;0.80;0.40;;;17.70;99.90;;;;;;4916428;29;21013;-78
2021/09/11 04:34:18;;;;;;;0.83;0.40;;;17.70;99.90;;;;;;4899354;29;20464;-77
2021/09/11 04:36:46;;;;;;;0.80;0.40;;;17.70;99.90;;;;;;4916324;29;20384;-77
2021/09/11 04:39:14;;;;;;;0.80;0.40;;;17.70;99.90;;;;;;4915920;29;20408;-77
2021/09/11 04:41:42;;;;;;;0.80;0.40;;;17.80;99.90;;;;;;4916372;29;20424;-77
2021/09/11 04:44:10;;;;;;;0.80;0.40;;;17.80;99.90;;;;;;4916191;29;20497;-77
2021/09/11 04:46:40;;;;;;;0.80;0.40;;;17.90;99.90;;;;;;4917088;29;20404;-76
2021/09/11 04:49:09;;;;;;;0.83;0.40;;;17.90;99.90;;;;;;4916383;29;20429;-77
2021/09/11 04:51:38;;;;;;;0.80;0.40;;;17.90;99.90;;;;;;4916342;29;20427;-77
2021/09/11 04:54:07;;;;;;;0.80;0.40;;;18.00;99.90;;;;;;4916382;29;20468;-77
2021/09/11 04:56:35;;;;;;;0.80;0.40;;;18.00;99.90;;;;;;4916426;29;20435;-77
2021/09/11 04:59:03;;;;;;;0.80;0.40;;;18.00;99.90;;;;;;4916265;29;20401;-77
2021/09/11 05:01:31;;;;;;;0.80;0.40;;;18.10;99.90;;;;;;4916122;29;20452;-77
2021/09/11 05:03:59;;;;;;;0.80;0.40;;;18.10;99.90;;;;;;4916202;29;20412;-77
2021/09/11 05:06:27;;;;;;;0.80;0.40;;;18.20;99.90;;;;;;4917058;29;20403;-77
2021/09/11 05:08:57;;;;;;;0.80;0.50;;;18.40;99.90;;;;;;4917294;29;20433;-77
2021/09/11 05:11:25;;;;;;;0.80;0.40;;;18.50;99.90;;;;;;4917779;29;20431;-76
2021/09/11 05:13:53;;;;;;;0.80;0.40;;;18.60;99.90;;;;;;4916444;29;20408;-77
2021/09/11 05:16:21;;;;;;;0.80;0.40;;;18.60;99.90;;;;;;4916263;29;20455;-77
2021/09/11 05:18:49;;;;;;;0.80;0.40;;;18.70;99.90;;;;;;4916224;29;20771;-77
2021/09/11 05:21:17;;;;;;;0.90;0.50;;;18.90;99.90;;;;;;4916794;29;20476;-76
2021/09/11 05:23:45;;;;;;;0.87;0.40;;;18.90;99.90;;;;;;4916166;29;20396;-77
2021/09/11 05:26:15;;;;;;;0.90;0.50;;;19.00;99.90;;;;;;4916846;29;20408;-77
2021/09/11 05:28:43;;;;;;;0.90;0.40;;;19.20;99.90;;;;;;4918472;29;20404;-77
2021/09/11 05:31:11;;;;;;;0.90;0.40;;;19.20;99.90;;;;;;4917523;29;20456;-77
2021/09/11 05:33:39;;;;;;;0.90;0.40;;;19.30;99.90;;;;;;4917503;29;20411;-77
2021/09/11 05:36:07;;;;;;;0.90;0.40;;;19.40;99.90;;;;;;4916804;29;20472;-77
2021/09/11 05:38:35;;;;;;;0.90;0.40;;;19.40;99.90;;;;;;4916168;29;20430;-77
2021/09/11 05:41:03;;;;;;;0.90;0.50;;;19.60;99.90;;;;;;4916343;29;20468;-77
2021/09/11 05:43:33;;;;;;;0.90;0.40;;;19.70;99.90;;;;;;4917573;29;20545;-78
2021/09/11 05:46:01;;;;;;;0.90;0.57;;;19.70;99.90;;;;;;4918234;29;20963;-77
2021/09/11 05:48:29;;;;;;;0.90;0.40;;;19.80;99.90;;;;;;4915941;29;20497;-78
2021/09/11 05:50:57;;;;;;;0.90;0.40;;;19.80;99.90;;;;;;4919971;29;20424;-77
2021/09/11 05:53:25;;;;;;;0.90;0.40;;;19.80;99.90;;;;;;4920527;29;20440;-76
2021/09/11 05:55:53;;;;;;;0.90;0.40;;;19.80;99.90;;;;;;4920927;29;20412;-76
2021/09/11 05:58:23;;;;;;;0.90;0.40;;;19.90;99.90;;;;;;4920941;29;20435;-78
2021/09/11 06:00:53;;;;;;;0.90;0.40;;;19.90;99.90;;;;;;4923877;29;20507;-76
2021/09/11 06:03:21;;;;;;;0.90;0.40;;;19.90;99.90;;;;;;4931628;29;20415;-76
2021/09/11 06:05:50;;;;;;;0.90;0.40;;;19.90;99.90;;;;;;4930860;29;20455;-77
2021/09/11 06:08:18;;;;;;;0.90;0.40;;;19.90;99.90;;;;;;4915298;29;20497;-76
2021/09/11 06:10:46;;;;;;;0.90;0.40;;;19.90;99.90;;;;;;4929918;29;20439;-79
2021/09/11 06:13:14;;;;;;;0.90;0.40;;;19.70;99.90;;;;;;4920962;29;20404;-77
2021/09/11 06:15:42;;;;;;;0.90;0.40;;;19.80;99.90;;;;;;4924596;29;20691;-77
2021/09/11 06:18:11;;;;;;;0.90;0.40;;;19.80;99.90;;;;;;4922111;29;20437;-77
2021/09/11 06:20:39;;;;;;;0.90;0.40;;;19.70;99.90;;;;;;4922456;29;20491;-78
2021/09/11 06:23:07;;;;;;;1.10;0.70;;;19.60;99.90;;;;;;4925882;29;20492;-78
2021/09/11 06:25:36;;;;;;;0.90;0.40;;;19.60;99.90;;;;;;4919487;29;20840;-76
2021/09/11 06:28:07;;;;;;;0.90;0.40;;;19.70;99.90;;;;;;4935305;29;20787;-76
2021/09/11 06:30:35;;;;;;;0.90;0.40;;;19.70;99.90;;;;;;4924333;29;20448;-78
2021/09/11 06:33:04;;;;;;;0.90;0.40;;;19.70;99.90;;;;;;4909171;29;20466;-77
2021/09/11 06:35:33;;;;;;;0.90;0.40;;;19.70;99.90;;;;;;4913335;29;20413;-77
2021/09/11 06:38:02;;;;;;;0.90;0.40;;;19.90;99.90;;;;;;4904491;29;20461;-77
2021/09/11 06:40:30;;;;;;;0.90;0.40;;;19.90;99.90;;;;;;4938640;29;20472;-76
2021/09/11 06:42:58;;;;;;;0.90;0.40;;;19.90;99.90;;;;;;4938686;29;20777;-77
2021/09/11 06:45:26;;;;;;;0.90;0.40;;;20.00;99.90;;;;;;4938493;29;20391;-76
2021/09/11 06:47:54;;;;;;;0.90;0.40;;;20.10;99.90;;;;;;4940044;29;20427;-76
2021/09/11 06:50:22;;;;;;;0.90;0.40;;;20.30;99.90;;;;;;4941263;29;20997;-77
2021/09/11 06:52:52;;;;;;;0.90;0.40;;;20.40;99.90;;;;;;4943190;29;20395;-76
2021/09/11 06:55:21;;;;;;;0.90;0.40;;;20.60;99.90;;;;;;4925861;29;20437;-76
2021/09/11 06:57:49;;;;;;;0.90;0.40;;;20.90;99.90;;;;;;4943273;29;20833;-78
2021/09/11 07:00:17;;;;;;;0.90;0.40;;;21.20;99.90;;;;;;4946760;29;20429;-78
2021/09/11 07:02:45;;;;;;;0.90;0.40;;;21.40;99.90;;;;;;4940207;29;20439;-79
2021/09/11 07:05:15;;;;;;;0.90;0.40;;;21.70;99.90;;;;;;4940032;29;20431;-78
2021/09/11 07:07:43;;;;;;;0.90;0.40;;;21.90;99.90;;;;;;4938400;29;20842;-77
2021/09/11 07:10:12;;;;;;;0.90;0.40;;;21.90;99.90;;;;;;4939091;29;20407;-78
2021/09/11 07:12:41;;;;;;;0.90;0.40;;;22.00;99.90;;;;;;4938674;29;20425;-77
2021/09/11 07:15:10;;;;;;;0.90;0.40;;;22.00;99.90;;;;;;4938130;29;20391;-77
2021/09/11 07:17:39;;;;;;;0.90;0.40;;;22.00;99.90;;;;;;4938573;29;20433;-77
2021/09/11 07:20:08;;;;;;;0.90;0.40;;;21.90;99.90;;;;;;4937921;29;20458;-77
2021/09/11 07:22:36;;;;;;;0.90;0.40;;;21.90;99.90;;;;;;4937690;29;21026;-77
2021/09/11 07:25:05;;;;;;;0.90;0.40;;;21.90;99.90;;;;;;4937369;29;20928;-77
2021/09/11 07:27:35;;;;;;;0.90;0.47;;;22.00;99.90;;;;;;4937304;29;20410;-77
2021/09/11 07:30:03;;;;;;;0.90;0.40;;;22.10;99.90;;;;;;4939727;29;20463;-78
2021/09/11 07:32:31;;;;;;;0.90;0.40;;;22.20;99.90;;;;;;4938960;29;20405;-77
2021/09/11 07:34:59;;;;;;;0.90;0.40;;;22.30;99.90;;;;;;4921757;29;20494;-78
2021/09/11 07:37:27;;;;;;;0.90;0.40;;;22.60;99.90;;;;;;4941146;29;20417;-79
2021/09/11 07:39:56;;;;;;;0.90;0.40;;;22.90;99.90;;;;;;4940958;29;20604;-78
2021/09/11 07:42:24;;;;;;;0.90;0.40;;;23.20;99.90;;;;;;4941130;29;20519;-78
2021/09/11 07:44:53;;;;;;;0.90;0.40;;;23.30;99.90;;;;;;4938391;29;20395;-77
2021/09/11 07:47:21;;;;;;;0.90;0.43;;;23.50;1.00;;;;;;4938163;29;20445;-77
2021/09/11 07:49:49;;;;;;;0.90;0.40;;;23.40;99.90;;;;;;4937849;29;20429;-77
2021/09/11 07:52:18;;;;;;;0.90;0.40;;;23.30;99.90;;;;;;4938862;29;20852;-78
2021/09/11 07:54:46;;;;;;;0.90;0.40;;;23.20;99.90;;;;;;4938198;29;20796;-78
2021/09/11 07:57:14;;;;;;;0.90;0.40;;;22.90;99.90;;;;;;4938720;29;20433;-78
2021/09/11 07:59:42;;;;;;;0.90;0.40;;;22.70;99.90;;;;;;4938141;29;20391;-77
2021/09/11 08:02:11;;;;;;;0.90;0.40;;;22.50;99.90;;;;;;4920167;29;20451;-77
2021/09/11 08:04:39;;;;;;;0.90;0.40;;;22.30;99.90;;;;;;4937525;29;20416;-77
2021/09/11 08:07:07;;;;;;;0.90;0.40;;;22.00;99.90;;;;;;4940130;29;20395;-78
2021/09/11 08:09:35;;;;;;;0.90;0.40;;;21.90;99.90;;;;;;4921944;29;20462;-77
2021/09/11 08:12:04;;;;;;;0.90;0.40;;;21.90;99.90;;;;;;4936690;29;20842;-77
2021/09/11 08:14:33;;;;;;;0.90;0.40;;;21.90;99.90;;;;;;4937776;29;20524;-76
2021/09/11 08:17:02;;;;;;;0.90;0.40;;;21.80;99.90;;;;;;4937267;29;20436;-76
2021/09/11 08:19:31;;;;;;;0.90;0.40;;;21.80;99.90;;;;;;4938347;29;20769;-76
2021/09/11 08:21:59;;;;;;;0.90;0.40;;;21.90;99.90;;;;;;4937975;29;20511;-77
2021/09/11 08:24:27;;;;;;;0.90;0.40;;;22.10;99.90;;;;;;4936848;29;20429;-77
2021/09/11 08:26:55;;;;;;;0.90;0.40;;;22.30;99.90;;;;;;4937685;29;20415;-77
2021/09/11 08:29:23;;;;;;;0.90;0.40;;;22.40;99.90;;;;;;4937588;29;20421;-77
2021/09/11 08:31:51;;;;;;;0.90;0.60;;;22.70;99.90;;;;;;4936711;29;20479;-77
2021/09/11 08:34:19;;;;;;;0.90;0.40;;;22.80;99.90;;;;;;4936766;29;20445;-77
2021/09/11 08:36:49;;;;;;;0.90;0.40;;;23.00;99.90;;;;;;4937013;29;20399;-77
2021/09/11 08:39:25;;;;;;;0.90;0.40;;;23.30;99.90;;;;;;4937278;29;20391;-77
2021/09/11 08:41:55;;;;;;;0.90;0.40;;;23.70;99.90;;;;;;4940172;29;20887;-77
2021/09/11 08:44:25;;;;;;;0.90;0.40;;;23.70;99.90;;;;;;4939730;29;20830;-78
2021/09/11 08:46:54;;;;;;;0.90;0.40;;;23.80;99.90;;;;;;4940318;29;20807;-77
2021/09/11 08:49:22;;;;;;;0.90;0.40;;;23.80;99.90;;;;;;4938628;29;20403;-77
2021/09/11 08:51:52;;;;;;;0.90;0.40;;;23.70;99.90;;;;;;4943414;29;20444;-78
2021/09/11 08:54:21;;;;;;;0.90;0.40;;;23.90;99.90;;;;;;4945812;29;20420;-78
2021/09/11 08:56:51;;;;;;;0.90;0.40;;;24.00;99.90;;;;;;4938792;29;20406;-79
2021/09/11 08:59:20;;;;;;;0.90;0.40;;;24.20;99.90;;;;;;4936987;29;20495;-78
2021/09/11 09:02:05;;;;;;;0.90;0.40;;;24.50;99.90;;;;;;4937815;29;20447;-78
2021/09/11 09:04:50;;;;;;;0.90;0.40;;;24.70;99.90;;;;;;4938175;29;20403;-78
2021/09/11 09:07:35;;;;;;;0.90;0.40;;;24.50;99.70;;;;;;4938521;29;20420;-78
2021/09/11 09:10:07;;;;;;;0.90;0.40;;;24.10;99.10;;;;;;4936842;29;20433;-78
2021/09/11 09:12:37;;;;;;;0.90;0.40;;;23.70;99.90;;;;;;4957320;23;20479;-78
2021/09/11 09:15:08;;;;;;;0.90;0.40;;;23.40;99.90;;;;;;4919868;29;20635;-78
2021/09/11 09:17:42;;;;;;;0.90;0.40;;;23.20;99.90;;;;;;4920303;29;20443;-78
2021/09/11 09:20:19;;;;;;;0.90;0.40;;;23.10;99.90;;;;;;4917990;29;20413;-76
2021/09/11 09:22:50;;;;;;;0.90;0.40;;;23.00;99.90;;;;;;4918730;29;20946;-78
2021/09/11 09:25:24;;;;;;;0.90;0.40;;;22.70;99.90;;;;;;4918178;29;20759;-78
2021/09/11 09:27:54;;;;;;;0.90;0.40;;;22.70;99.90;;;;;;4919124;29;21007;-80
2021/09/11 09:30:25;;;;;;;0.90;0.40;;;22.70;99.90;;;;;;4922823;29;20400;-79
2021/09/11 09:32:53;;;;;;;0.90;0.40;;;22.70;99.90;;;;;;4922158;29;20471;-79
2021/09/11 09:35:25;;;;;;;0.90;0.40;;;22.80;99.90;;;;;;4922654;29;20440;-79
2021/09/11 09:37:57;;;;;;;0.90;0.40;;;22.80;99.90;;;;;;4919114;29;20430;-80
2021/09/11 09:40:38;;;;;;;0.90;0.40;;;22.80;99.90;;;;;;4920558;29;20410;-80
2021/09/11 09:43:07;;;;;;;0.90;0.40;;;22.80;99.90;;;;;;4923410;29;20461;-79
2021/09/11 09:45:37;;;;;;;0.90;0.40;;;22.80;99.90;;;;;;4902561;29;20425;-78
2021/09/11 09:48:09;;;;;;;0.90;0.40;;;22.90;99.90;;;;;;4918259;29;20994;-79
2021/09/11 09:50:38;;;;;;;0.90;0.40;;;23.10;99.90;;;;;;4919289;29;20413;-79
2021/09/11 09:53:09;;;;;;;0.90;0.40;;;23.40;99.90;;;;;;4919475;29;20481;-78
2021/09/11 09:55:39;;;;;;;0.90;0.40;;;23.50;99.90;;;;;;4916955;29;20447;-79
2021/09/11 09:58:08;;;;;;;0.90;0.40;;;23.80;99.90;;;;;;4917978;29;20903;-79
2021/09/11 10:00:36;;;;;;;0.90;0.40;;;23.90;99.90;;;;;;4917644;29;20781;-79
2021/09/11 10:03:04;;;;;;;0.90;0.40;;;23.90;99.90;;;;;;4900689;29;20954;-79
2021/09/11 10:05:34;;;;;;;0.90;0.40;;;23.90;99.90;;;;;;4917959;29;20429;-80
2021/09/11 10:08:07;;;;;;;0.90;0.40;;;23.80;99.90;;;;;;4917978;29;20501;-79
2021/09/11 10:10:40;;;;;;;0.90;0.50;;;23.70;99.90;;;;;;4918006;29;20913;-78
2021/09/11 10:13:10;;;;;;;0.90;0.40;;;23.40;99.90;;;;;;4917891;29;20435;-79
2021/09/11 10:15:51;;;;;;;0.90;0.40;;;22.90;99.90;;;;;;4917009;29;20887;-79
2021/09/11 10:18:44;;;;;;;0.90;0.40;;;22.40;99.90;;;;;;4900880;29;20444;-78
2021/09/11 10:21:35;;;;;;;0.90;0.70;;;22.40;99.90;;;;;;4916683;29;20540;-79
2021/09/11 10:24:30;;;;;;;0.90;0.40;;;22.40;99.90;;;;;;4917848;29;20530;-78
2021/09/11 10:27:07;;;;;;;0.90;0.40;;;22.50;99.90;;;;;;4918356;29;20418;-78
2021/09/11 10:29:40;;;;;;;0.90;0.40;;;22.60;99.90;;;;;;4919832;29;20396;-79
2021/09/11 10:32:13;;;;;;;0.90;0.40;;;22.80;99.90;;;;;;4918847;29;20458;-79
2021/09/11 10:34:49;;;;;;;0.90;0.40;;;23.00;99.90;;;;;;4900906;29;20424;-78
2021/09/11 10:37:38;;;;;;;0.90;0.40;;;23.40;99.90;;;;;;4921422;29;20809;-78
2021/09/11 10:40:31;;;;;;;0.90;0.40;;;23.60;99.90;;;;;;4922369;29;20450;-78
2021/09/11 10:43:24;;;;;;;0.90;0.40;;;23.80;99.90;;;;;;4903612;29;20576;-78
2021/09/11 10:46:16;;;;;;;0.90;0.40;;;24.30;99.70;;;;;;4921081;29;20457;-78
2021/09/11 10:48:56;;;;;;;0.90;0.40;;;24.80;94.10;;;;;;4902626;29;20444;-78
2021/09/11 10:51:30;;;;;;;0.90;0.40;;;25.00;70.60;;;;;;4920536;29;20461;-78
2021/09/11 10:54:14;;;;;;;0.90;0.40;;;24.60;80.40;;;;;;4920041;29;20429;-77
2021/09/11 10:56:53;;;;;;;1.10;0.80;;;24.30;91.40;;;;;;4920120;29;20437;-78
2021/09/11 10:59:33;;;;;;;0.90;0.40;;;24.30;92.40;;;;;;4930414;29;20414;-78
2021/09/11 11:02:07;;;;;;;0.90;0.40;;;24.20;93.90;;;;;;4936216;29;20446;-77
2021/09/11 11:04:38;;;;;;;0.90;0.40;;;24.40;90.00;;;;;;4937258;29;20500;-77
2021/09/11 11:07:08;;;;;;;0.90;0.40;;;24.60;81.80;;;;;;4937548;29;20433;-78
2021/09/11 11:09:39;;;;;;;0.90;0.40;;;24.90;75.90;;;;;;4936346;29;20421;-77
2021/09/11 11:12:08;;;;;;;0.90;0.40;;;25.10;66.60;;;;;;4920868;29;20465;-78
2021/09/11 11:14:45;;;;;;;0.90;0.40;;;25.20;57.90;;;;;;4920936;29;20720;-78
2021/09/11 11:17:14;;;;;;;0.93;0.50;;;25.20;58.40;;;;;;4921686;29;20436;-79
2021/09/11 11:19:44;;;;;;;0.90;0.40;;;25.20;54.80;;;;;;4920463;29;20869;-78
2021/09/11 11:22:13;;;;;;;0.90;0.40;;;25.00;55.30;;;;;;4919934;29;20450;-79
2021/09/11 11:24:45;;;;;;;0.90;0.40;;;24.90;58.40;;;;;;4919958;29;20536;-78
2021/09/11 11:27:16;;;;;;;0.90;0.40;;;25.00;54.80;;;;;;4919876;29;20423;-78
2021/09/11 11:29:47;;;;;;;0.90;0.40;;;25.00;58.20;;;;;;4920885;29;20434;-78
2021/09/11 11:32:16;;;;;;;0.90;0.40;;;25.10;56.10;;;;;;4925296;29;20445;-79
2021/09/11 11:34:44;;;;;;;0.90;0.40;;;25.00;51.40;;;;;;4922709;29;20434;-78
2021/09/11 11:37:13;;;;;;;0.90;0.40;;;24.80;55.20;;;;;;4921337;29;20862;-77
2021/09/11 11:39:42;;;;;;;0.90;0.40;;;24.80;59.70;;;;;;4919763;29;20425;-75
2021/09/11 11:42:21;;;;;;;0.90;0.40;;;24.60;54.30;;;;;;4921612;29;20868;-78
2021/09/11 11:44:52;;;;;;;0.90;0.40;;;24.50;55.60;;;;;;4923406;29;20552;-78
2021/09/11 11:47:32;;;;;;;0.90;0.40;;;24.50;57.70;;;;;;4919435;29;20412;-79
2021/09/11 11:50:00;;;;;;;0.90;0.40;;;24.20;58.20;;;;;;4921045;29;20508;-79
2021/09/11 11:52:30;;;;;;;0.90;0.40;;;23.90;68.90;;;;;;4919309;29;20450;-78
2021/09/11 11:55:09;;;;;;;0.90;0.40;;;23.90;70.30;;;;;;4918817;29;20408;-79
2021/09/11 11:57:38;;;;;;;0.90;0.40;;;24.10;70.80;;;;;;4920855;29;20420;-79
2021/09/11 12:00:10;;;;;;;0.90;0.40;;;24.40;59.40;;;;;;4921109;29;20525;-79
2021/09/11 12:02:40;;;;;;;0.90;0.40;;;24.70;58.90;;;;;;4920243;29;20533;-79
2021/09/11 12:05:14;;;;;;;0.90;0.40;;;24.90;52.10;;;;;;4920449;29;20560;-79
2021/09/11 12:07:52;;;;;;;0.90;0.40;;;25.20;53.00;;;;;;4920002;29;20429;-79
2021/09/11 12:10:21;;;;;;;0.90;0.40;;;25.40;44.50;;;;;;4920132;29;20472;-79
2021/09/11 12:12:51;;;;;;;0.90;0.40;;;25.30;41.40;;;;;;4919828;29;20452;-79
2021/09/11 12:15:22;;;;;;;0.90;0.40;;;24.90;44.50;;;;;;4920034;29;20652;-78
2021/09/11 12:17:55;;;;;;;0.90;0.40;;;24.50;48.00;;;;;;4920127;29;20398;-78
2021/09/11 12:20:44;;;;;;;0.90;0.40;;;24.20;52.40;;;;;;4903357;29;20454;-78
2021/09/11 12:23:15;;;;;;;0.90;0.40;;;24.00;56.80;;;;;;4919898;29;20442;-78
2021/09/11 12:25:53;;;;;;;0.90;0.40;;;24.10;56.20;;;;;;4919080;29;20429;-78
2021/09/11 12:28:36;;;;;;;0.90;0.40;;;24.30;48.10;;;;;;4919924;29;20476;-79
2021/09/11 12:31:08;;;;;;;0.90;0.40;;;24.40;47.10;;;;;;4919322;29;20544;-80
2021/09/11 12:33:48;;;;;;;0.90;0.40;;;24.70;48.70;;;;;;4918652;29;20505;-78
2021/09/11 12:36:18;;;;;;;0.90;0.40;;;25.00;45.50;;;;;;4917370;29;20824;-78
2021/09/11 12:38:47;;;;;;;0.90;0.40;;;25.40;43.10;;;;;;4919163;29;20489;-78
2021/09/11 12:41:15;;;;;;;0.90;0.40;;;25.80;36.70;;;;;;4919598;29;20449;-78
2021/09/11 12:43:43;;;;;;;0.90;0.40;;;25.60;34.70;;;;;;4918418;29;20461;-79
2021/09/11 12:46:14;;;;;;;0.90;0.40;;;25.50;34.80;;;;;;4918745;29;20413;-79
2021/09/11 12:48:42;;;;;;;0.90;0.40;;;25.60;35.10;;;;;;4918659;29;20537;-78
2021/09/11 12:51:10;;;;;;;0.90;0.40;;;25.40;33.90;;;;;;4920118;29;20446;-78
2021/09/11 12:53:38;;;;;;;0.90;0.40;;;25.40;36.60;;;;;;4918956;29;20416;-78
2021/09/11 12:56:06;;;;;;;0.90;0.40;;;25.50;36.60;;;;;;4902684;29;21011;-79
2021/09/11 12:58:35;;;;;;;0.90;0.40;;;25.70;35.10;;;;;;4918103;29;20429;-78
2021/09/11 13:01:03;;;;;;;0.90;0.40;;;25.80;33.50;;;;;;4917693;29;20450;-78
2021/09/11 13:03:33;;;;;;;0.90;0.40;;;26.00;34.00;;;;;;4917644;29;20425;-78